sensor_id;sensor_type;location;lat;lon;timestamp;P1;durP1;ratioP1;P2;durP2;ratioP2
69126;SDS011;56688;50.234;19.292;2023-12-29T00:00:49;12.00;;;7.00;;
69126;SDS011;56688;50.234;19.292;2023-12-29T00:03:16;11.00;;;6.80;;
69126;SDS011;56688;50.234;19.292;2023-12-29T00:05:43;11.00;;;7.00;;
69126;SDS011;56688;50.234;19.292;2023-12-29T00:08:10;11.60;;;6.50;;
69126;SDS011;56688;50.234;19.292;2023-12-29T00:10:37;14.50;;;7.90;;
69126;SDS011;56688;50.234;19.292;2023-12-29T00:13:04;13.60;;;7.90;;
69126;SDS011;56688;50.234;19.292;2023-12-29T00:15:31;14.80;;;8.00;;
69126;SDS011;56688;50.234;19.292;2023-12-29T00:17:58;12.50;;;7.50;;
69126;SDS011;56688;50.234;19.292;2023-12-29T00:20:26;13.40;;;7.70;;
69126;SDS011;56688;50.234;19.292;2023-12-29T00:23:06;13.60;;;8.90;;
69126;SDS011;56688;50.234;19.292;2023-12-29T00:25:36;19.30;;;11.90;;
69126;SDS011;56688;50.234;19.292;2023-12-29T00:28:04;17.40;;;9.50;;
69126;SDS011;56688;50.234;19.292;2023-12-29T00:30:32;18.90;;;10.10;;
69126;SDS011;56688;50.234;19.292;2023-12-29T00:33:19;15.60;;;9.10;;
69126;SDS011;56688;50.234;19.292;2023-12-29T00:35:46;18.40;;;10.90;;
69126;SDS011;56688;50.234;19.292;2023-12-29T00:38:13;14.00;;;8.80;;
69126;SDS011;56688;50.234;19.292;2023-12-29T00:40:40;13.80;;;8.10;;
69126;SDS011;56688;50.234;19.292;2023-12-29T00:43:07;14.20;;;8.90;;
69126;SDS011;56688;50.234;19.292;2023-12-29T00:45:34;13.90;;;8.10;;
69126;SDS011;56688;50.234;19.292;2023-12-29T00:48:02;13.80;;;8.10;;
69126;SDS011;56688;50.234;19.292;2023-12-29T00:50:30;14.10;;;8.90;;
69126;SDS011;56688;50.234;19.292;2023-12-29T00:52:57;12.40;;;7.90;;
69126;SDS011;56688;50.234;19.292;2023-12-29T00:55:25;12.80;;;7.80;;
69126;SDS011;56688;50.234;19.292;2023-12-29T00:57:52;13.30;;;7.10;;
69126;SDS011;56688;50.234;19.292;2023-12-29T01:00:19;10.40;;;6.70;;
69126;SDS011;56688;50.234;19.292;2023-12-29T01:02:46;11.20;;;7.10;;
69126;SDS011;56688;50.234;19.292;2023-12-29T01:05:16;13.10;;;7.10;;
69126;SDS011;56688;50.234;19.292;2023-12-29T01:07:45;11.70;;;7.30;;
69126;SDS011;56688;50.234;19.292;2023-12-29T01:10:13;10.40;;;6.80;;
69126;SDS011;56688;50.234;19.292;2023-12-29T01:12:40;8.90;;;5.80;;
69126;SDS011;56688;50.234;19.292;2023-12-29T01:15:08;14.20;;;8.00;;
69126;SDS011;56688;50.234;19.292;2023-12-29T01:17:35;11.90;;;7.10;;
69126;SDS011;56688;50.234;19.292;2023-12-29T01:20:02;11.90;;;6.60;;
69126;SDS011;56688;50.234;19.292;2023-12-29T01:22:31;11.60;;;7.00;;
69126;SDS011;56688;50.234;19.292;2023-12-29T01:24:58;11.40;;;6.90;;
69126;SDS011;56688;50.234;19.292;2023-12-29T01:27:27;11.70;;;6.60;;
69126;SDS011;56688;50.234;19.292;2023-12-29T01:29:54;11.30;;;6.80;;
69126;SDS011;56688;50.234;19.292;2023-12-29T01:32:21;11.30;;;7.20;;
69126;SDS011;56688;50.234;19.292;2023-12-29T01:34:48;12.50;;;6.90;;
69126;SDS011;56688;50.234;19.292;2023-12-29T01:37:15;12.30;;;7.10;;
69126;SDS011;56688;50.234;19.292;2023-12-29T01:39:42;11.10;;;7.20;;
69126;SDS011;56688;50.234;19.292;2023-12-29T01:42:10;14.20;;;7.30;;
69126;SDS011;56688;50.234;19.292;2023-12-29T01:44:38;12.70;;;6.30;;
69126;SDS011;56688;50.234;19.292;2023-12-29T01:47:10;10.10;;;6.30;;
69126;SDS011;56688;50.234;19.292;2023-12-29T01:49:43;11.00;;;6.30;;
69126;SDS011;56688;50.234;19.292;2023-12-29T01:52:13;11.50;;;6.40;;
69126;SDS011;56688;50.234;19.292;2023-12-29T01:54:41;12.20;;;6.90;;
69126;SDS011;56688;50.234;19.292;2023-12-29T01:57:11;10.60;;;6.60;;
69126;SDS011;56688;50.234;19.292;2023-12-29T01:59:38;10.90;;;6.50;;
69126;SDS011;56688;50.234;19.292;2023-12-29T02:02:07;10.80;;;6.60;;
69126;SDS011;56688;50.234;19.292;2023-12-29T02:04:35;10.30;;;6.40;;
69126;SDS011;56688;50.234;19.292;2023-12-29T02:07:04;10.20;;;6.30;;
69126;SDS011;56688;50.234;19.292;2023-12-29T02:09:31;11.40;;;6.10;;
69126;SDS011;56688;50.234;19.292;2023-12-29T02:12:00;9.70;;;5.90;;
69126;SDS011;56688;50.234;19.292;2023-12-29T02:19:56;7.60;;;5.00;;
69126;SDS011;56688;50.234;19.292;2023-12-29T02:22:23;9.90;;;5.60;;
69126;SDS011;56688;50.234;19.292;2023-12-29T02:24:51;12.60;;;6.00;;
69126;SDS011;56688;50.234;19.292;2023-12-29T02:27:28;9.30;;;5.30;;
69126;SDS011;56688;50.234;19.292;2023-12-29T02:32:43;10.90;;;5.40;;
69126;SDS011;56688;50.234;19.292;2023-12-29T02:35:14;10.10;;;5.80;;
69126;SDS011;56688;50.234;19.292;2023-12-29T02:37:45;11.50;;;6.00;;
69126;SDS011;56688;50.234;19.292;2023-12-29T02:40:14;11.60;;;5.70;;
69126;SDS011;56688;50.234;19.292;2023-12-29T02:42:44;8.80;;;5.60;;
69126;SDS011;56688;50.234;19.292;2023-12-29T02:45:14;11.60;;;5.80;;
69126;SDS011;56688;50.234;19.292;2023-12-29T02:47:41;10.50;;;5.40;;
69126;SDS011;56688;50.234;19.292;2023-12-29T02:50:10;10.40;;;5.70;;
69126;SDS011;56688;50.234;19.292;2023-12-29T02:52:37;10.10;;;5.80;;
69126;SDS011;56688;50.234;19.292;2023-12-29T02:55:04;9.50;;;5.50;;
69126;SDS011;56688;50.234;19.292;2023-12-29T02:57:31;10.90;;;6.10;;
69126;SDS011;56688;50.234;19.292;2023-12-29T02:59:58;8.90;;;4.70;;
69126;SDS011;56688;50.234;19.292;2023-12-29T03:02:25;11.60;;;5.30;;
69126;SDS011;56688;50.234;19.292;2023-12-29T03:04:52;7.20;;;4.60;;
69126;SDS011;56688;50.234;19.292;2023-12-29T03:07:19;7.90;;;4.10;;
69126;SDS011;56688;50.234;19.292;2023-12-29T03:09:46;6.50;;;4.10;;
69126;SDS011;56688;50.234;19.292;2023-12-29T03:12:14;7.20;;;3.90;;
69126;SDS011;56688;50.234;19.292;2023-12-29T03:14:41;5.70;;;3.20;;
69126;SDS011;56688;50.234;19.292;2023-12-29T03:17:08;8.00;;;4.50;;
69126;SDS011;56688;50.234;19.292;2023-12-29T03:19:35;7.50;;;3.60;;
69126;SDS011;56688;50.234;19.292;2023-12-29T03:22:02;8.10;;;4.30;;
69126;SDS011;56688;50.234;19.292;2023-12-29T03:24:29;8.80;;;3.80;;
69126;SDS011;56688;50.234;19.292;2023-12-29T03:26:57;5.50;;;3.40;;
69126;SDS011;56688;50.234;19.292;2023-12-29T03:29:24;6.60;;;3.60;;
69126;SDS011;56688;50.234;19.292;2023-12-29T03:31:52;5.00;;;3.50;;
69126;SDS011;56688;50.234;19.292;2023-12-29T03:34:19;5.70;;;3.40;;
69126;SDS011;56688;50.234;19.292;2023-12-29T03:36:47;6.70;;;4.30;;
69126;SDS011;56688;50.234;19.292;2023-12-29T03:39:14;5.30;;;3.50;;
69126;SDS011;56688;50.234;19.292;2023-12-29T03:41:41;8.30;;;3.90;;
69126;SDS011;56688;50.234;19.292;2023-12-29T03:44:08;6.50;;;3.40;;
69126;SDS011;56688;50.234;19.292;2023-12-29T03:46:35;9.40;;;4.10;;
69126;SDS011;56688;50.234;19.292;2023-12-29T03:49:02;6.20;;;3.60;;
69126;SDS011;56688;50.234;19.292;2023-12-29T03:51:30;7.30;;;4.00;;
69126;SDS011;56688;50.234;19.292;2023-12-29T03:53:57;9.10;;;4.10;;
69126;SDS011;56688;50.234;19.292;2023-12-29T03:56:25;6.70;;;3.90;;
69126;SDS011;56688;50.234;19.292;2023-12-29T03:58:52;7.00;;;4.00;;
69126;SDS011;56688;50.234;19.292;2023-12-29T04:01:19;6.30;;;3.70;;
69126;SDS011;56688;50.234;19.292;2023-12-29T04:03:47;6.90;;;4.10;;
69126;SDS011;56688;50.234;19.292;2023-12-29T04:06:14;9.90;;;4.60;;
69126;SDS011;56688;50.234;19.292;2023-12-29T04:08:41;9.00;;;4.00;;
69126;SDS011;56688;50.234;19.292;2023-12-29T04:11:08;10.00;;;4.30;;
69126;SDS011;56688;50.234;19.292;2023-12-29T04:13:35;9.10;;;3.80;;
69126;SDS011;56688;50.234;19.292;2023-12-29T04:16:02;8.00;;;3.90;;
69126;SDS011;56688;50.234;19.292;2023-12-29T04:18:29;7.50;;;3.70;;
69126;SDS011;56688;50.234;19.292;2023-12-29T04:20:57;7.10;;;4.10;;
69126;SDS011;56688;50.234;19.292;2023-12-29T04:23:23;6.50;;;4.00;;
69126;SDS011;56688;50.234;19.292;2023-12-29T04:25:50;7.00;;;4.30;;
69126;SDS011;56688;50.234;19.292;2023-12-29T04:28:17;7.30;;;3.90;;
69126;SDS011;56688;50.234;19.292;2023-12-29T04:30:45;8.10;;;4.30;;
69126;SDS011;56688;50.234;19.292;2023-12-29T04:33:12;6.80;;;4.30;;
69126;SDS011;56688;50.234;19.292;2023-12-29T04:35:39;7.90;;;4.10;;
69126;SDS011;56688;50.234;19.292;2023-12-29T04:38:06;8.20;;;4.50;;
69126;SDS011;56688;50.234;19.292;2023-12-29T04:40:33;6.90;;;4.40;;
69126;SDS011;56688;50.234;19.292;2023-12-29T04:43:00;8.40;;;5.00;;
69126;SDS011;56688;50.234;19.292;2023-12-29T04:45:28;8.70;;;5.50;;
69126;SDS011;56688;50.234;19.292;2023-12-29T04:47:55;9.80;;;5.60;;
69126;SDS011;56688;50.234;19.292;2023-12-29T04:50:23;8.10;;;6.00;;
69126;SDS011;56688;50.234;19.292;2023-12-29T04:52:50;8.50;;;6.10;;
69126;SDS011;56688;50.234;19.292;2023-12-29T04:55:17;7.70;;;5.10;;
69126;SDS011;56688;50.234;19.292;2023-12-29T04:57:44;8.20;;;4.80;;
69126;SDS011;56688;50.234;19.292;2023-12-29T05:00:11;8.00;;;4.70;;
69126;SDS011;56688;50.234;19.292;2023-12-29T05:02:39;9.40;;;5.00;;
69126;SDS011;56688;50.234;19.292;2023-12-29T05:05:06;7.50;;;4.80;;
69126;SDS011;56688;50.234;19.292;2023-12-29T05:07:33;9.10;;;5.90;;
69126;SDS011;56688;50.234;19.292;2023-12-29T05:10:00;8.00;;;4.90;;
69126;SDS011;56688;50.234;19.292;2023-12-29T05:12:27;12.90;;;7.40;;
69126;SDS011;56688;50.234;19.292;2023-12-29T05:14:54;11.10;;;7.60;;
69126;SDS011;56688;50.234;19.292;2023-12-29T05:17:21;14.40;;;7.40;;
69126;SDS011;56688;50.234;19.292;2023-12-29T05:19:48;10.80;;;7.00;;
69126;SDS011;56688;50.234;19.292;2023-12-29T05:22:15;7.20;;;5.40;;
69126;SDS011;56688;50.234;19.292;2023-12-29T05:24:44;8.80;;;5.20;;
69126;SDS011;56688;50.234;19.292;2023-12-29T05:27:12;8.70;;;4.40;;
69126;SDS011;56688;50.234;19.292;2023-12-29T05:29:39;7.10;;;4.20;;
69126;SDS011;56688;50.234;19.292;2023-12-29T05:32:06;8.60;;;4.60;;
69126;SDS011;56688;50.234;19.292;2023-12-29T05:34:34;6.50;;;4.00;;
69126;SDS011;56688;50.234;19.292;2023-12-29T05:37:01;7.10;;;4.40;;
69126;SDS011;56688;50.234;19.292;2023-12-29T05:39:28;8.40;;;4.80;;
69126;SDS011;56688;50.234;19.292;2023-12-29T05:41:55;7.30;;;4.00;;
69126;SDS011;56688;50.234;19.292;2023-12-29T05:44:22;8.60;;;4.70;;
69126;SDS011;56688;50.234;19.292;2023-12-29T05:46:49;8.40;;;4.30;;
69126;SDS011;56688;50.234;19.292;2023-12-29T05:49:17;4.60;;;3.80;;
69126;SDS011;56688;50.234;19.292;2023-12-29T05:51:45;9.30;;;4.30;;
69126;SDS011;56688;50.234;19.292;2023-12-29T05:54:12;6.20;;;3.80;;
69126;SDS011;56688;50.234;19.292;2023-12-29T05:56:39;4.70;;;3.50;;
69126;SDS011;56688;50.234;19.292;2023-12-29T05:59:06;4.90;;;3.50;;
69126;SDS011;56688;50.234;19.292;2023-12-29T06:01:33;6.80;;;4.80;;
69126;SDS011;56688;50.234;19.292;2023-12-29T06:04:00;7.80;;;5.10;;
69126;SDS011;56688;50.234;19.292;2023-12-29T06:06:27;9.80;;;5.00;;
69126;SDS011;56688;50.234;19.292;2023-12-29T06:08:54;7.30;;;4.60;;
69126;SDS011;56688;50.234;19.292;2023-12-29T06:11:21;8.90;;;5.10;;
69126;SDS011;56688;50.234;19.292;2023-12-29T06:13:48;6.50;;;4.30;;
69126;SDS011;56688;50.234;19.292;2023-12-29T06:16:19;5.30;;;3.50;;
69126;SDS011;56688;50.234;19.292;2023-12-29T06:18:47;8.90;;;4.10;;
69126;SDS011;56688;50.234;19.292;2023-12-29T06:21:15;5.10;;;2.80;;
69126;SDS011;56688;50.234;19.292;2023-12-29T06:23:41;4.00;;;2.60;;
69126;SDS011;56688;50.234;19.292;2023-12-29T06:26:16;4.30;;;2.70;;
69126;SDS011;56688;50.234;19.292;2023-12-29T06:28:46;4.70;;;2.40;;
69126;SDS011;56688;50.234;19.292;2023-12-29T06:31:14;5.30;;;3.10;;
69126;SDS011;56688;50.234;19.292;2023-12-29T06:33:41;4.80;;;3.10;;
69126;SDS011;56688;50.234;19.292;2023-12-29T06:36:09;5.40;;;2.90;;
69126;SDS011;56688;50.234;19.292;2023-12-29T06:38:37;4.40;;;2.90;;
69126;SDS011;56688;50.234;19.292;2023-12-29T06:41:04;5.80;;;3.10;;
69126;SDS011;56688;50.234;19.292;2023-12-29T06:43:31;5.00;;;3.10;;
69126;SDS011;56688;50.234;19.292;2023-12-29T06:45:58;5.00;;;2.90;;
69126;SDS011;56688;50.234;19.292;2023-12-29T06:48:25;3.80;;;2.70;;
69126;SDS011;56688;50.234;19.292;2023-12-29T06:50:52;5.60;;;3.00;;
69126;SDS011;56688;50.234;19.292;2023-12-29T06:53:19;4.80;;;3.10;;
69126;SDS011;56688;50.234;19.292;2023-12-29T06:55:46;3.90;;;2.30;;
69126;SDS011;56688;50.234;19.292;2023-12-29T06:58:14;5.00;;;3.00;;
69126;SDS011;56688;50.234;19.292;2023-12-29T07:00:41;7.10;;;3.30;;
69126;SDS011;56688;50.234;19.292;2023-12-29T07:03:12;5.30;;;3.30;;
69126;SDS011;56688;50.234;19.292;2023-12-29T07:05:41;5.20;;;3.30;;
69126;SDS011;56688;50.234;19.292;2023-12-29T07:08:08;6.90;;;3.60;;
69126;SDS011;56688;50.234;19.292;2023-12-29T07:10:35;6.40;;;3.60;;
69126;SDS011;56688;50.234;19.292;2023-12-29T07:13:02;7.30;;;3.40;;
69126;SDS011;56688;50.234;19.292;2023-12-29T07:15:29;6.70;;;3.50;;
69126;SDS011;56688;50.234;19.292;2023-12-29T07:17:56;6.30;;;3.50;;
69126;SDS011;56688;50.234;19.292;2023-12-29T07:20:23;5.30;;;3.70;;
69126;SDS011;56688;50.234;19.292;2023-12-29T07:22:51;5.20;;;3.30;;
69126;SDS011;56688;50.234;19.292;2023-12-29T07:25:18;6.10;;;3.80;;
69126;SDS011;56688;50.234;19.292;2023-12-29T07:27:46;8.30;;;3.60;;
69126;SDS011;56688;50.234;19.292;2023-12-29T07:30:13;7.00;;;3.80;;
69126;SDS011;56688;50.234;19.292;2023-12-29T07:32:41;7.30;;;3.60;;
69126;SDS011;56688;50.234;19.292;2023-12-29T07:35:08;8.10;;;3.90;;
69126;SDS011;56688;50.234;19.292;2023-12-29T07:37:35;8.50;;;3.70;;
69126;SDS011;56688;50.234;19.292;2023-12-29T07:40:02;6.30;;;3.60;;
69126;SDS011;56688;50.234;19.292;2023-12-29T07:42:30;5.90;;;3.10;;
69126;SDS011;56688;50.234;19.292;2023-12-29T07:44:59;4.10;;;2.80;;
69126;SDS011;56688;50.234;19.292;2023-12-29T07:47:27;5.00;;;2.90;;
69126;SDS011;56688;50.234;19.292;2023-12-29T07:49:54;3.80;;;2.40;;
69126;SDS011;56688;50.234;19.292;2023-12-29T07:52:21;5.60;;;3.10;;
69126;SDS011;56688;50.234;19.292;2023-12-29T07:54:48;5.00;;;3.20;;
69126;SDS011;56688;50.234;19.292;2023-12-29T07:57:16;5.30;;;3.20;;
69126;SDS011;56688;50.234;19.292;2023-12-29T07:59:43;5.80;;;3.20;;
69126;SDS011;56688;50.234;19.292;2023-12-29T08:02:10;4.80;;;2.90;;
69126;SDS011;56688;50.234;19.292;2023-12-29T08:04:37;3.80;;;2.60;;
69126;SDS011;56688;50.234;19.292;2023-12-29T08:07:05;6.30;;;3.10;;
69126;SDS011;56688;50.234;19.292;2023-12-29T08:09:32;4.90;;;2.80;;
69126;SDS011;56688;50.234;19.292;2023-12-29T08:11:59;4.60;;;3.00;;
69126;SDS011;56688;50.234;19.292;2023-12-29T08:14:27;4.90;;;2.80;;
69126;SDS011;56688;50.234;19.292;2023-12-29T08:16:55;4.90;;;3.00;;
69126;SDS011;56688;50.234;19.292;2023-12-29T08:19:23;5.00;;;2.90;;
69126;SDS011;56688;50.234;19.292;2023-12-29T08:21:50;3.70;;;2.70;;
69126;SDS011;56688;50.234;19.292;2023-12-29T08:24:18;3.80;;;2.40;;
69126;SDS011;56688;50.234;19.292;2023-12-29T08:26:47;4.10;;;2.70;;
69126;SDS011;56688;50.234;19.292;2023-12-29T08:29:14;4.60;;;2.40;;
69126;SDS011;56688;50.234;19.292;2023-12-29T08:31:42;4.40;;;2.70;;
69126;SDS011;56688;50.234;19.292;2023-12-29T08:34:10;3.90;;;2.70;;
69126;SDS011;56688;50.234;19.292;2023-12-29T08:36:37;4.40;;;2.90;;
69126;SDS011;56688;50.234;19.292;2023-12-29T08:39:04;6.30;;;2.80;;
69126;SDS011;56688;50.234;19.292;2023-12-29T08:41:32;5.30;;;3.10;;
69126;SDS011;56688;50.234;19.292;2023-12-29T08:43:59;4.40;;;2.50;;
69126;SDS011;56688;50.234;19.292;2023-12-29T08:46:26;4.30;;;3.00;;
69126;SDS011;56688;50.234;19.292;2023-12-29T08:48:53;5.30;;;2.80;;
69126;SDS011;56688;50.234;19.292;2023-12-29T08:51:20;5.50;;;3.00;;
69126;SDS011;56688;50.234;19.292;2023-12-29T08:53:47;5.20;;;2.80;;
69126;SDS011;56688;50.234;19.292;2023-12-29T08:56:14;4.00;;;2.60;;
69126;SDS011;56688;50.234;19.292;2023-12-29T08:58:41;5.70;;;2.90;;
69126;SDS011;56688;50.234;19.292;2023-12-29T09:01:08;4.50;;;2.60;;
69126;SDS011;56688;50.234;19.292;2023-12-29T09:03:35;5.00;;;3.00;;
69126;SDS011;56688;50.234;19.292;2023-12-29T09:06:02;3.50;;;2.60;;
69126;SDS011;56688;50.234;19.292;2023-12-29T09:08:30;4.30;;;2.90;;
69126;SDS011;56688;50.234;19.292;2023-12-29T09:10:58;3.00;;;2.40;;
69126;SDS011;56688;50.234;19.292;2023-12-29T09:13:25;5.50;;;2.60;;
69126;SDS011;56688;50.234;19.292;2023-12-29T09:15:54;3.70;;;2.60;;
69126;SDS011;56688;50.234;19.292;2023-12-29T09:18:21;4.10;;;2.80;;
69126;SDS011;56688;50.234;19.292;2023-12-29T09:20:49;3.30;;;2.60;;
69126;SDS011;56688;50.234;19.292;2023-12-29T09:23:16;7.80;;;2.60;;
69126;SDS011;56688;50.234;19.292;2023-12-29T09:25:43;4.60;;;2.50;;
69126;SDS011;56688;50.234;19.292;2023-12-29T09:28:10;4.30;;;2.60;;
69126;SDS011;56688;50.234;19.292;2023-12-29T09:30:39;5.50;;;2.50;;
69126;SDS011;56688;50.234;19.292;2023-12-29T09:33:06;3.50;;;2.50;;
69126;SDS011;56688;50.234;19.292;2023-12-29T09:35:33;3.80;;;2.50;;
69126;SDS011;56688;50.234;19.292;2023-12-29T09:38:03;3.80;;;2.70;;
69126;SDS011;56688;50.234;19.292;2023-12-29T09:40:31;4.80;;;2.60;;
69126;SDS011;56688;50.234;19.292;2023-12-29T09:42:59;4.70;;;2.70;;
69126;SDS011;56688;50.234;19.292;2023-12-29T09:45:29;3.40;;;2.50;;
69126;SDS011;56688;50.234;19.292;2023-12-29T09:47:59;3.30;;;2.30;;
69126;SDS011;56688;50.234;19.292;2023-12-29T09:50:30;4.00;;;2.30;;
69126;SDS011;56688;50.234;19.292;2023-12-29T09:52:59;3.90;;;2.50;;
69126;SDS011;56688;50.234;19.292;2023-12-29T09:55:28;4.90;;;2.30;;
69126;SDS011;56688;50.234;19.292;2023-12-29T09:57:55;2.90;;;2.00;;
69126;SDS011;56688;50.234;19.292;2023-12-29T10:00:26;4.80;;;2.40;;
69126;SDS011;56688;50.234;19.292;2023-12-29T10:02:53;3.60;;;2.40;;
69126;SDS011;56688;50.234;19.292;2023-12-29T10:05:21;3.50;;;2.30;;
69126;SDS011;56688;50.234;19.292;2023-12-29T10:07:48;3.60;;;2.20;;
69126;SDS011;56688;50.234;19.292;2023-12-29T10:10:17;3.40;;;2.10;;
69126;SDS011;56688;50.234;19.292;2023-12-29T10:12:47;4.20;;;2.20;;
69126;SDS011;56688;50.234;19.292;2023-12-29T10:15:24;3.10;;;2.20;;
69126;SDS011;56688;50.234;19.292;2023-12-29T10:23:22;3.40;;;2.30;;
69126;SDS011;56688;50.234;19.292;2023-12-29T10:25:58;3.70;;;2.30;;
69126;SDS011;56688;50.234;19.292;2023-12-29T10:28:25;3.00;;;2.10;;
69126;SDS011;56688;50.234;19.292;2023-12-29T10:30:52;3.30;;;2.30;;
69126;SDS011;56688;50.234;19.292;2023-12-29T10:33:19;4.40;;;2.40;;
69126;SDS011;56688;50.234;19.292;2023-12-29T10:35:56;4.60;;;2.50;;
69126;SDS011;56688;50.234;19.292;2023-12-29T10:38:34;4.40;;;2.20;;
69126;SDS011;56688;50.234;19.292;2023-12-29T10:43:45;3.80;;;2.40;;
69126;SDS011;56688;50.234;19.292;2023-12-29T10:46:18;5.10;;;3.00;;
69126;SDS011;56688;50.234;19.292;2023-12-29T10:48:46;4.60;;;2.70;;
69126;SDS011;56688;50.234;19.292;2023-12-29T10:51:14;3.50;;;2.40;;
69126;SDS011;56688;50.234;19.292;2023-12-29T10:53:40;3.20;;;2.60;;
69126;SDS011;56688;50.234;19.292;2023-12-29T10:56:16;5.00;;;2.80;;
69126;SDS011;56688;50.234;19.292;2023-12-29T10:58:56;4.70;;;2.50;;
69126;SDS011;56688;50.234;19.292;2023-12-29T11:01:30;4.90;;;2.40;;
69126;SDS011;56688;50.234;19.292;2023-12-29T11:04:02;3.80;;;2.60;;
69126;SDS011;56688;50.234;19.292;2023-12-29T11:06:39;5.30;;;2.60;;
69126;SDS011;56688;50.234;19.292;2023-12-29T11:09:08;4.20;;;2.60;;
69126;SDS011;56688;50.234;19.292;2023-12-29T11:11:36;3.40;;;2.50;;
69126;SDS011;56688;50.234;19.292;2023-12-29T11:14:04;4.90;;;2.60;;
69126;SDS011;56688;50.234;19.292;2023-12-29T11:16:32;4.40;;;2.70;;
69126;SDS011;56688;50.234;19.292;2023-12-29T11:18:58;3.80;;;2.50;;
69126;SDS011;56688;50.234;19.292;2023-12-29T11:21:28;6.20;;;3.20;;
69126;SDS011;56688;50.234;19.292;2023-12-29T11:23:57;3.80;;;2.70;;
69126;SDS011;56688;50.234;19.292;2023-12-29T11:26:24;6.20;;;2.90;;
69126;SDS011;56688;50.234;19.292;2023-12-29T11:28:52;3.70;;;2.40;;
69126;SDS011;56688;50.234;19.292;2023-12-29T11:31:20;4.30;;;2.50;;
69126;SDS011;56688;50.234;19.292;2023-12-29T11:33:50;5.70;;;2.90;;
69126;SDS011;56688;50.234;19.292;2023-12-29T11:36:28;3.70;;;2.30;;
69126;SDS011;56688;50.234;19.292;2023-12-29T11:39:03;4.00;;;2.70;;
69126;SDS011;56688;50.234;19.292;2023-12-29T11:44:28;6.00;;;3.00;;
69126;SDS011;56688;50.234;19.292;2023-12-29T11:46:56;5.00;;;2.50;;
69126;SDS011;56688;50.234;19.292;2023-12-29T11:49:26;4.50;;;2.90;;
69126;SDS011;56688;50.234;19.292;2023-12-29T11:51:55;3.80;;;2.40;;
69126;SDS011;56688;50.234;19.292;2023-12-29T11:54:23;6.50;;;3.00;;
69126;SDS011;56688;50.234;19.292;2023-12-29T11:56:52;3.90;;;2.40;;
69126;SDS011;56688;50.234;19.292;2023-12-29T11:59:20;4.30;;;2.60;;
69126;SDS011;56688;50.234;19.292;2023-12-29T12:07:05;3.80;;;2.70;;
69126;SDS011;56688;50.234;19.292;2023-12-29T12:09:35;4.90;;;2.70;;
69126;SDS011;56688;50.234;19.292;2023-12-29T12:12:03;3.20;;;2.30;;
69126;SDS011;56688;50.234;19.292;2023-12-29T12:20:02;4.20;;;3.20;;
69126;SDS011;56688;50.234;19.292;2023-12-29T12:22:33;4.00;;;3.20;;
69126;SDS011;56688;50.234;19.292;2023-12-29T12:25:05;6.30;;;3.10;;
69126;SDS011;56688;50.234;19.292;2023-12-29T12:27:34;3.50;;;2.60;;
69126;SDS011;56688;50.234;19.292;2023-12-29T12:30:05;3.80;;;2.70;;
69126;SDS011;56688;50.234;19.292;2023-12-29T12:32:32;5.10;;;2.50;;
69126;SDS011;56688;50.234;19.292;2023-12-29T12:34:59;5.70;;;2.90;;
69126;SDS011;56688;50.234;19.292;2023-12-29T12:37:27;3.00;;;2.40;;
69126;SDS011;56688;50.234;19.292;2023-12-29T12:39:55;4.90;;;3.00;;
69126;SDS011;56688;50.234;19.292;2023-12-29T12:42:23;4.00;;;2.60;;
69126;SDS011;56688;50.234;19.292;2023-12-29T12:44:54;3.30;;;2.70;;
69126;SDS011;56688;50.234;19.292;2023-12-29T12:47:26;5.80;;;3.10;;
69126;SDS011;56688;50.234;19.292;2023-12-29T12:50:00;4.60;;;3.20;;
69126;SDS011;56688;50.234;19.292;2023-12-29T12:52:35;11.70;;;5.90;;
69126;SDS011;56688;50.234;19.292;2023-12-29T12:55:03;4.20;;;3.20;;
69126;SDS011;56688;50.234;19.292;2023-12-29T12:57:31;8.50;;;4.70;;
69126;SDS011;56688;50.234;19.292;2023-12-29T13:00:00;16.70;;;7.50;;
69126;SDS011;56688;50.234;19.292;2023-12-29T13:02:29;4.80;;;3.30;;
69126;SDS011;56688;50.234;19.292;2023-12-29T13:04:58;6.20;;;3.20;;
69126;SDS011;56688;50.234;19.292;2023-12-29T13:07:25;5.20;;;3.20;;
69126;SDS011;56688;50.234;19.292;2023-12-29T13:09:53;3.60;;;2.70;;
69126;SDS011;56688;50.234;19.292;2023-12-29T13:12:21;3.70;;;2.60;;
69126;SDS011;56688;50.234;19.292;2023-12-29T13:14:48;4.70;;;2.70;;
69126;SDS011;56688;50.234;19.292;2023-12-29T13:17:15;4.10;;;2.60;;
69126;SDS011;56688;50.234;19.292;2023-12-29T13:19:44;4.10;;;2.60;;
69126;SDS011;56688;50.234;19.292;2023-12-29T13:22:12;3.90;;;2.80;;
69126;SDS011;56688;50.234;19.292;2023-12-29T13:24:44;4.20;;;2.60;;
69126;SDS011;56688;50.234;19.292;2023-12-29T13:27:12;3.60;;;2.80;;
69126;SDS011;56688;50.234;19.292;2023-12-29T13:29:40;3.40;;;2.60;;
69126;SDS011;56688;50.234;19.292;2023-12-29T13:32:11;3.90;;;2.80;;
69126;SDS011;56688;50.234;19.292;2023-12-29T13:40:16;6.50;;;2.80;;
69126;SDS011;56688;50.234;19.292;2023-12-29T13:42:57;4.20;;;2.90;;
69126;SDS011;56688;50.234;19.292;2023-12-29T13:45:28;5.90;;;2.80;;
69126;SDS011;56688;50.234;19.292;2023-12-29T13:47:56;4.90;;;3.10;;
69126;SDS011;56688;50.234;19.292;2023-12-29T13:50:25;4.90;;;3.00;;
69126;SDS011;56688;50.234;19.292;2023-12-29T13:52:52;5.90;;;3.10;;
69126;SDS011;56688;50.234;19.292;2023-12-29T13:55:21;4.50;;;2.40;;
69126;SDS011;56688;50.234;19.292;2023-12-29T13:57:50;4.50;;;2.80;;
69126;SDS011;56688;50.234;19.292;2023-12-29T14:00:18;4.50;;;2.90;;
69126;SDS011;56688;50.234;19.292;2023-12-29T14:02:48;5.10;;;3.10;;
69126;SDS011;56688;50.234;19.292;2023-12-29T14:05:32;3.40;;;2.50;;
69126;SDS011;56688;50.234;19.292;2023-12-29T14:10:30;4.30;;;2.50;;
69126;SDS011;56688;50.234;19.292;2023-12-29T14:15:42;4.00;;;2.80;;
69126;SDS011;56688;50.234;19.292;2023-12-29T14:20:39;5.30;;;3.20;;
69126;SDS011;56688;50.234;19.292;2023-12-29T14:23:07;5.30;;;3.00;;
69126;SDS011;56688;50.234;19.292;2023-12-29T14:25:34;4.80;;;2.90;;
69126;SDS011;56688;50.234;19.292;2023-12-29T14:28:04;6.50;;;4.30;;
69126;SDS011;56688;50.234;19.292;2023-12-29T14:30:42;7.60;;;5.70;;
69126;SDS011;56688;50.234;19.292;2023-12-29T14:33:09;5.40;;;3.60;;
69126;SDS011;56688;50.234;19.292;2023-12-29T14:35:37;5.20;;;3.30;;
69126;SDS011;56688;50.234;19.292;2023-12-29T14:38:04;3.80;;;2.90;;
69126;SDS011;56688;50.234;19.292;2023-12-29T14:40:31;5.60;;;3.50;;
69126;SDS011;56688;50.234;19.292;2023-12-29T14:43:02;5.80;;;3.20;;
69126;SDS011;56688;50.234;19.292;2023-12-29T14:45:29;6.30;;;3.20;;
69126;SDS011;56688;50.234;19.292;2023-12-29T14:47:57;5.90;;;3.40;;
69126;SDS011;56688;50.234;19.292;2023-12-29T14:50:26;6.20;;;3.60;;
69126;SDS011;56688;50.234;19.292;2023-12-29T14:52:53;4.60;;;3.20;;
69126;SDS011;56688;50.234;19.292;2023-12-29T14:55:20;5.30;;;3.30;;
69126;SDS011;56688;50.234;19.292;2023-12-29T14:57:47;4.80;;;3.30;;
69126;SDS011;56688;50.234;19.292;2023-12-29T15:00:14;5.90;;;4.10;;
69126;SDS011;56688;50.234;19.292;2023-12-29T15:02:42;7.30;;;3.20;;
69126;SDS011;56688;50.234;19.292;2023-12-29T15:05:09;3.50;;;2.50;;
69126;SDS011;56688;50.234;19.292;2023-12-29T15:07:36;4.80;;;2.90;;
69126;SDS011;56688;50.234;19.292;2023-12-29T15:10:03;5.80;;;2.70;;
69126;SDS011;56688;50.234;19.292;2023-12-29T15:12:30;4.60;;;2.60;;
69126;SDS011;56688;50.234;19.292;2023-12-29T15:14:57;4.30;;;2.80;;
69126;SDS011;56688;50.234;19.292;2023-12-29T15:17:24;4.50;;;2.70;;
69126;SDS011;56688;50.234;19.292;2023-12-29T15:19:51;3.60;;;2.80;;